Timeline UpdatesTrip UpdatesNews PostsPvt PostsTravel TipsAdmin PostsConv PostsFollowed PostsChat RequestsBlog PostsPNR Posts

Disclaimer
Search
 
 
Tue Sep 2, 2014 02:35:23 ISTHomeTrainsΣChainsAtlasPNRForumGalleryNewsFAQTripsMembersLoginFeedback
No Recent News for this Train
Other Trains in the News **new
Latest...
.
Mon Nov 18, 2013 (08:48PM)
⇐ Return Journey: Train# 14649

14650/Saryu Yamuna Express

NO Time-Table Change.
Yesterday (10:01PM)
Change Departure Station:
Change Arrival Station:
Post a Train Travel TipPost a Train Travel Tip **new
Post a Comment/Question/Picture/VideoPost a Comment/Question/Picture/Video
Pantry/Catering
✕ NO Pantry Car
✕ NO Catering
Loco/Rake Reversals
SPJ/Samastipur Junction (9); SHG/Shahganj Junction (4);
RSA - Rake Sharing
14673/74 Shaheed Express.
Rake/Coach Composition
LOCO,SLR,UR,S1,UR,UR,UR,B1,AB1,S2,S3,S4,S5,S6,UR,UR,UR,UR,UR,S7,SLR
Loco
AMRITSAR-DELHI: WAP-7 of GHAZIABAD SHED. DELHI-JAYNAGAR: WDM-3A/3D of TUGHLAKABAD/SAMASTIPUR SHED
News    PNR    Forum    Time-Table    Availability    Fare Chart    Map    Arr/Dep History    Trips    Gallery    ΣChains    X/O    Timeline    
Travel Time: 22h 10m    24 halts    Distance: 1066 km    Avg Speed: 48 km/hr
Type: Mail/Express
Zone: NR/Northern
Departs @ 21:15
Platform# 5
 M W  S
Old Delhi Junction/DLI 
Arrives @ 19:25 +1 night
Platform# ???
S T T  
Muzaffarpur Junction/MFP 

24 halts. 170 intermediate Stations between Old Delhi Junction and Muzaffarpur Junction

Show ALL intermediate Stations  

#CodeStation NameX/OArrivesAvgDepartsAvgHaltPFDay#KmSpeedElevZoneAddress
1ASRAmritsar Junction (5)  -11:55-21-447.692233mNRAmritsar 143002, Punjab
2BEASBeas Junction (2)  12:23-12:25-2m21-404.661238mNRBeas, Punjab
3KREKartarpur (2)  12:46-12:48-2m11-383.252236mNRKartarpur, Punjab
4JUCJalandhar City Junction (5)  13:05-13:10-5m21-368.526239mNRJalandhar 144001, Punjab
5JRCJalandhar Cantt. Junction (3)  13:21-13:23-2m21-363.765239mNRNear Rama Mandi, Punjab
6PGWPhagwara Junction (3)  13:38-13:40-2m11-347.475245mNRPhagwara, Punjab
7PHRPhillaur Junction (3)X  13:58-14:00-2m11-324.852246mNRPhillaur, Punjab
8LDHLudhiana Junction (7)X  14:15-14:25-10m11-311.739246mNRLudhiana 141001, Punjab
9DOADoraha (2)  15:00-15:02-2m21-289.281261mNRDoraha, Punjab
10KNNKhanna (3)  15:17-15:19-2m21-268.961269mNRNH 1, Punjab
11GVGMandi Gobindgarh (2)  15:27-15:29-2m11-260.853268mNRMandi Gobindgarh, Punjab
12SIRSirhind Junction (3)X  15:40-15:42-2m21-251.088271mNRSirhind, Punjab
13RPJRajpura Junction (3)X  15:59-16:01-2m21-226.259272mNRNH-1, Punjab
14UBCAmbala City (3)XO  16:22-16:24-2m11-205.713273mNRNH-1, Haryana
15UMBAmbala Cantt. Junction (7)X  17:00-17:10-10m21-198.168278mNRAmbala 133001, Haryana
16KKDEKurukshetra Junction (3)X  17:47-17:49-2m21-156.074260mNRKurukshetra, Haryana
17KUNKarnal (3)X  18:16-18:18-2m--1-122.967253mNRKarnal, Haryana
18PNPPanipat Junction (5)  18:49-18:51-2m21-88.580235mNRPanipat, Haryana
19SNPSonipat (3)  19:25-19:27-2m--1-43.353225mNRSonipat, Haryana
20SZMDelhi Sabzi Mandi (2)  20:13-20:15-2m--1-3.06220mNRGulabi Bagh, Delhi NCT
21DLI»Old Delhi Junction (16)»X20:45-21:15-30m510.024219mNRNear Chandni Chowk Metro Station, Delhi NCT
22GZBGhaziabad Junction (6)  22:05-22:07-2m1120.158217mNRGhaziabad, Uttar Pradesh
23HPUHapur Junction (4)  22:45-22:48-3m2156.873214mNRHapur Jn., Uttar Pradesh
24AMROAmroha (3)X  23:48-23:50-2m11130.241217mNRAmroha, Uttar Pradesh
25MBMoradabad Junction (7)X  00:35-00:45-10m32160.855201mNRMoradabad, Uttar Pradesh
26RMURampur Junction (3)X  01:15-01:17-2m22188.065190mNRRampur, Uttar Pradesh
27BEBareilly Junction (4)X  02:15-02:20-5m12251.165174mNRBareilly, Uttar Pradesh
28SPNShahjahanpur Junction (3)X  03:25-03:30-5m--2321.662156mNRShahjahanpur, Uttar Pradesh
29LKOLucknow Charbagh (9)X  06:10-06:20-10m42486.537123mNR226004, Uttar Pradesh
30BBKBarabanki Junction (4)  07:06-07:08-2m--2515.068122mNRPin-225001, Uttar Pradesh
31FDFaizabad Junction (5)  08:35-08:40-5m--2614.327104mNRFaizabad, Uttar Pradesh
32AYAyodhya Junction (3)O  08:55-08:57-2m22621.07098mNRAyodhya, Uttar Pradesh
33ABPAkbarpur (2)  09:43-09:45-2m--2674.93892mNRAkbarpur, Uttar Pradesh
34SHGShahganj Junction (4)10:55-11:20-25m--2719.03790mNRShahganj, Uttar Pradesh
35KRNDKhorason Road (2)  11:54-11:56-2m--2740.25085mNERUttar Pradesh 276304 ?, Uttar Pradesh
36AMHAzamgarh (2)X  12:38-12:43-5m--2774.97281mNERAzamgarh, Uttar Pradesh
37MMAMuhammadabad (2)  13:01-13:03-2m--2796.54880mNERMuhammadabad Marg, Uttar Pradesh
38MAUMau Junction (4)X  13:30-13:35-5m42818.22175mNERMau., Uttar Pradesh
39IAAIndara Junction (3)  13:58-14:00-2m--2826.07174mNERMau, Uttar Pradesh
40RSRRasra (2)  14:24-14:26-2m--2854.35070mNERRasra, Uttar Pradesh
41BUIBallia (3)X  15:05-15:10-5m22887.05562mNERBallia, Uttar Pradesh
42SIPSuraimanpurX  15:50-15:52-2m--2923.43660mNERBallia, Uttar Pradesh
43CPRChhapra Junction (6)X  16:40-17:00-20m--2952.66058mNERDistt: Saran, Bihar
44SEESonpur Junction (4)  17:54-17:59-5m--21006.72556mECRSaran, Bihar
45HJPHajipur Junction (3)X  18:12-18:14-2m--21012.24555mECR06224-272230, Bihar
46MFP•Muzaffarpur Junction (6)•  19:25-19:35-10m--21066.03557mECRMuzaffarpur, Bihar
47SPJSamastipur Junction (9)XO21:05-21:35-30m--21118.15755mECRSamastipur, Bihar
48HYTHaiaghatXO  21:58-22:00-2m--21140.22551mECRDarbhanga, Bihar
49LSILaheria Sarai (1)  22:25-22:30-5m121150.63052mECRDarbhanga, Bihar
50DBGDarbhanga Junction (5)X  22:40-22:50-10m421155.62754mECRDarbhanga, Bihar
51KKHTKakarghatti  23:04-23:06-2m--21161.94454mECRDarbhanga, Bihar
52TRSTarsarai  23:15-23:17-2m--21168.53154mECRDarbhanga, Bihar
53SKISakri Junction (5)  23:30-23:35-5m121175.23955mECRMadhubani, Bihar
54PDWPandaul  23:47-23:49-2m--21183.02059mECRMadhubani, Bihar
55MBIMadhubani (3)  00:16-00:18-2m131192.04662mECRMadhubani, Bihar
56RJARajanagar  00:31-00:33-2m--31201.93765mECRRajnagar Distt: Madhubani, Bihar
57KJIKhajauli  00:48-00:50-2m--31211.21870mECRMadhubani, Bihar
58JYGJaynagar (3)  01:30--131223.3-68mECRDistt: Madhubani, Bihar
Scroll to Top
Scroll to Bottom